sensor_id;sensor_type;location;lat;lon;timestamp;temperature;humidity
20728;DHT22;10525;50.154;8.198;2022-10-22T00:01:56;14.20;99.90
20728;DHT22;10525;50.154;8.198;2022-10-22T00:04:24;14.30;99.90
20728;DHT22;10525;50.154;8.198;2022-10-22T00:06:51;14.40;99.90
20728;DHT22;10525;50.154;8.198;2022-10-22T00:09:18;14.30;99.90
20728;DHT22;10525;50.154;8.198;2022-10-22T00:11:44;14.30;99.90
20728;DHT22;10525;50.154;8.198;2022-10-22T00:14:11;14.30;99.90
20728;DHT22;10525;50.154;8.198;2022-10-22T00:16:38;14.30;99.90
20728;DHT22;10525;50.154;8.198;2022-10-22T00:19:05;14.40;99.90
20728;DHT22;10525;50.154;8.198;2022-10-22T00:21:34;14.30;99.90
20728;DHT22;10525;50.154;8.198;2022-10-22T00:24:01;14.30;99.90
20728;DHT22;10525;50.154;8.198;2022-10-22T00:26:28;14.40;99.90
20728;DHT22;10525;50.154;8.198;2022-10-22T00:28:54;14.30;99.90
20728;DHT22;10525;50.154;8.198;2022-10-22T00:31:21;14.30;99.90
20728;DHT22;10525;50.154;8.198;2022-10-22T00:33:48;14.30;99.90
20728;DHT22;10525;50.154;8.198;2022-10-22T00:36:15;14.30;99.90
20728;DHT22;10525;50.154;8.198;2022-10-22T00:38:43;14.30;99.90
20728;DHT22;10525;50.154;8.198;2022-10-22T00:41:10;14.30;99.90
20728;DHT22;10525;50.154;8.198;2022-10-22T00:43:54;14.40;99.90
20728;DHT22;10525;50.154;8.198;2022-10-22T00:46:21;14.40;99.90
20728;DHT22;10525;50.154;8.198;2022-10-22T00:48:47;14.40;99.90
20728;DHT22;10525;50.154;8.198;2022-10-22T00:51:15;14.40;99.90
20728;DHT22;10525;50.154;8.198;2022-10-22T00:53:46;14.40;99.90
20728;DHT22;10525;50.154;8.198;2022-10-22T00:56:15;14.30;99.90
20728;DHT22;10525;50.154;8.198;2022-10-22T00:58:45;14.40;99.90
20728;DHT22;10525;50.154;8.198;2022-10-22T01:01:16;14.30;99.90
20728;DHT22;10525;50.154;8.198;2022-10-22T01:03:44;14.30;99.90
20728;DHT22;10525;50.154;8.198;2022-10-22T01:06:18;14.30;99.90
20728;DHT22;10525;50.154;8.198;2022-10-22T01:08:53;14.30;99.90
20728;DHT22;10525;50.154;8.198;2022-10-22T01:11:28;14.40;99.90
20728;DHT22;10525;50.154;8.198;2022-10-22T01:14:03;14.40;99.90
20728;DHT22;10525;50.154;8.198;2022-10-22T01:16:37;14.30;99.90
20728;DHT22;10525;50.154;8.198;2022-10-22T01:19:24;14.30;99.90
20728;DHT22;10525;50.154;8.198;2022-10-22T01:21:58;14.30;99.90
20728;DHT22;10525;50.154;8.198;2022-10-22T01:24:41;14.40;99.90
20728;DHT22;10525;50.154;8.198;2022-10-22T01:30:06;14.30;99.90
20728;DHT22;10525;50.154;8.198;2022-10-22T01:32:36;14.40;99.90
20728;DHT22;10525;50.154;8.198;2022-10-22T01:35:07;14.30;99.90
20728;DHT22;10525;50.154;8.198;2022-10-22T01:37:43;14.30;99.90
20728;DHT22;10525;50.154;8.198;2022-10-22T01:40:13;14.30;99.90
20728;DHT22;10525;50.154;8.198;2022-10-22T01:42:40;14.30;99.90
20728;DHT22;10525;50.154;8.198;2022-10-22T01:45:13;14.30;99.90
20728;DHT22;10525;50.154;8.198;2022-10-22T01:47:47;14.30;99.90
20728;DHT22;10525;50.154;8.198;2022-10-22T01:53:18;14.20;99.90
20728;DHT22;10525;50.154;8.198;2022-10-22T01:55:55;14.30;99.90
20728;DHT22;10525;50.154;8.198;2022-10-22T01:58:37;14.30;99.90
20728;DHT22;10525;50.154;8.198;2022-10-22T02:01:12;14.20;99.90
20728;DHT22;10525;50.154;8.198;2022-10-22T02:03:44;14.20;99.90
20728;DHT22;10525;50.154;8.198;2022-10-22T02:06:16;14.20;99.90
20728;DHT22;10525;50.154;8.198;2022-10-22T02:08:45;14.20;99.90
20728;DHT22;10525;50.154;8.198;2022-10-22T02:11:13;14.20;99.90
20728;DHT22;10525;50.154;8.198;2022-10-22T02:13:43;14.20;99.90
20728;DHT22;10525;50.154;8.198;2022-10-22T02:16:15;14.10;99.90
20728;DHT22;10525;50.154;8.198;2022-10-22T02:18:44;14.10;99.90
20728;DHT22;10525;50.154;8.198;2022-10-22T02:21:11;14.10;99.90
20728;DHT22;10525;50.154;8.198;2022-10-22T02:23:38;14.10;99.90
20728;DHT22;10525;50.154;8.198;2022-10-22T02:26:08;14.10;99.90
20728;DHT22;10525;50.154;8.198;2022-10-22T02:28:43;14.10;99.90
20728;DHT22;10525;50.154;8.198;2022-10-22T02:31:15;14.10;99.90
20728;DHT22;10525;50.154;8.198;2022-10-22T02:33:46;14.00;99.90
20728;DHT22;10525;50.154;8.198;2022-10-22T02:36:14;14.00;99.90
20728;DHT22;10525;50.154;8.198;2022-10-22T02:38:42;14.00;99.90
20728;DHT22;10525;50.154;8.198;2022-10-22T02:41:09;14.00;99.90
20728;DHT22;10525;50.154;8.198;2022-10-22T02:43:40;14.00;99.90
20728;DHT22;10525;50.154;8.198;2022-10-22T02:46:08;14.00;99.90
20728;DHT22;10525;50.154;8.198;2022-10-22T02:48:36;14.00;99.90
20728;DHT22;10525;50.154;8.198;2022-10-22T02:51:03;14.00;99.90
20728;DHT22;10525;50.154;8.198;2022-10-22T02:53:30;14.00;99.90
20728;DHT22;10525;50.154;8.198;2022-10-22T02:55:57;13.90;99.90
20728;DHT22;10525;50.154;8.198;2022-10-22T02:58:24;13.90;99.90
20728;DHT22;10525;50.154;8.198;2022-10-22T03:00:51;13.80;99.90
20728;DHT22;10525;50.154;8.198;2022-10-22T03:03:17;13.80;99.90
20728;DHT22;10525;50.154;8.198;2022-10-22T03:05:45;13.80;99.90
20728;DHT22;10525;50.154;8.198;2022-10-22T03:08:12;13.90;99.90
20728;DHT22;10525;50.154;8.198;2022-10-22T03:10:39;13.90;99.90
20728;DHT22;10525;50.154;8.198;2022-10-22T03:13:05;13.90;99.90
20728;DHT22;10525;50.154;8.198;2022-10-22T03:15:32;13.80;99.90
20728;DHT22;10525;50.154;8.198;2022-10-22T03:17:59;13.80;99.90
20728;DHT22;10525;50.154;8.198;2022-10-22T03:20:25;13.80;99.90
20728;DHT22;10525;50.154;8.198;2022-10-22T03:22:54;13.80;99.90
20728;DHT22;10525;50.154;8.198;2022-10-22T03:25:24;13.80;99.90
20728;DHT22;10525;50.154;8.198;2022-10-22T03:27:53;13.80;99.90
20728;DHT22;10525;50.154;8.198;2022-10-22T03:30:21;13.70;99.90
20728;DHT22;10525;50.154;8.198;2022-10-22T03:32:47;13.80;99.90
20728;DHT22;10525;50.154;8.198;2022-10-22T03:35:14;13.70;99.90
20728;DHT22;10525;50.154;8.198;2022-10-22T03:37:41;13.70;99.90
20728;DHT22;10525;50.154;8.198;2022-10-22T03:40:11;13.60;99.90
20728;DHT22;10525;50.154;8.198;2022-10-22T03:42:38;13.50;99.90
20728;DHT22;10525;50.154;8.198;2022-10-22T03:45:06;13.50;99.90
20728;DHT22;10525;50.154;8.198;2022-10-22T03:47:32;13.40;99.90
20728;DHT22;10525;50.154;8.198;2022-10-22T03:50:01;13.40;99.90
20728;DHT22;10525;50.154;8.198;2022-10-22T03:52:28;13.30;99.90
20728;DHT22;10525;50.154;8.198;2022-10-22T03:54:54;13.30;99.90
20728;DHT22;10525;50.154;8.198;2022-10-22T03:57:22;13.20;99.90
20728;DHT22;10525;50.154;8.198;2022-10-22T03:59:49;13.20;99.90
20728;DHT22;10525;50.154;8.198;2022-10-22T04:02:16;13.10;99.90
20728;DHT22;10525;50.154;8.198;2022-10-22T04:04:43;13.10;99.90
20728;DHT22;10525;50.154;8.198;2022-10-22T04:07:09;13.20;99.90
20728;DHT22;10525;50.154;8.198;2022-10-22T04:09:36;13.20;99.90
20728;DHT22;10525;50.154;8.198;2022-10-22T04:12:03;13.20;99.90
20728;DHT22;10525;50.154;8.198;2022-10-22T04:14:33;13.20;99.90
20728;DHT22;10525;50.154;8.198;2022-10-22T04:17:00;13.30;99.90
20728;DHT22;10525;50.154;8.198;2022-10-22T04:19:27;13.40;99.90
20728;DHT22;10525;50.154;8.198;2022-10-22T04:21:56;13.40;99.90
20728;DHT22;10525;50.154;8.198;2022-10-22T04:24:23;13.40;99.90
20728;DHT22;10525;50.154;8.198;2022-10-22T04:26:52;13.50;99.90
20728;DHT22;10525;50.154;8.198;2022-10-22T04:29:19;13.60;99.90
20728;DHT22;10525;50.154;8.198;2022-10-22T04:31:47;13.50;99.90
20728;DHT22;10525;50.154;8.198;2022-10-22T04:34:14;13.60;99.90
20728;DHT22;10525;50.154;8.198;2022-10-22T04:36:41;13.60;99.90
20728;DHT22;10525;50.154;8.198;2022-10-22T04:39:08;13.60;99.90
20728;DHT22;10525;50.154;8.198;2022-10-22T04:41:37;13.60;99.90
20728;DHT22;10525;50.154;8.198;2022-10-22T04:44:05;13.60;99.90
20728;DHT22;10525;50.154;8.198;2022-10-22T04:46:34;13.60;99.90
20728;DHT22;10525;50.154;8.198;2022-10-22T04:49:02;13.60;99.90
20728;DHT22;10525;50.154;8.198;2022-10-22T04:51:29;13.60;99.90
20728;DHT22;10525;50.154;8.198;2022-10-22T04:53:56;13.60;99.90
20728;DHT22;10525;50.154;8.198;2022-10-22T04:56:24;13.60;99.90
20728;DHT22;10525;50.154;8.198;2022-10-22T04:58:54;13.70;99.90
20728;DHT22;10525;50.154;8.198;2022-10-22T05:01:22;13.60;99.90
20728;DHT22;10525;50.154;8.198;2022-10-22T05:03:51;13.60;99.90
20728;DHT22;10525;50.154;8.198;2022-10-22T05:06:20;13.60;99.90
20728;DHT22;10525;50.154;8.198;2022-10-22T05:08:50;13.60;99.90
20728;DHT22;10525;50.154;8.198;2022-10-22T05:11:19;13.70;99.90
20728;DHT22;10525;50.154;8.198;2022-10-22T05:13:46;13.60;99.90
20728;DHT22;10525;50.154;8.198;2022-10-22T05:16:13;13.60;99.90
20728;DHT22;10525;50.154;8.198;2022-10-22T05:18:41;13.60;99.90
20728;DHT22;10525;50.154;8.198;2022-10-22T05:21:09;13.60;99.90
20728;DHT22;10525;50.154;8.198;2022-10-22T05:23:38;13.60;99.90
20728;DHT22;10525;50.154;8.198;2022-10-22T05:26:07;13.60;99.90
20728;DHT22;10525;50.154;8.198;2022-10-22T05:28:35;13.60;99.90
20728;DHT22;10525;50.154;8.198;2022-10-22T05:31:03;13.60;99.90
20728;DHT22;10525;50.154;8.198;2022-10-22T05:33:31;13.60;99.90
20728;DHT22;10525;50.154;8.198;2022-10-22T05:35:59;13.60;99.90
20728;DHT22;10525;50.154;8.198;2022-10-22T05:38:25;13.60;99.90
20728;DHT22;10525;50.154;8.198;2022-10-22T05:40:59;13.50;99.90
20728;DHT22;10525;50.154;8.198;2022-10-22T05:43:26;13.50;99.90
20728;DHT22;10525;50.154;8.198;2022-10-22T05:45:53;13.50;99.90
20728;DHT22;10525;50.154;8.198;2022-10-22T05:48:20;13.40;99.90
20728;DHT22;10525;50.154;8.198;2022-10-22T05:50:46;13.30;99.90
20728;DHT22;10525;50.154;8.198;2022-10-22T05:53:15;13.30;99.90
20728;DHT22;10525;50.154;8.198;2022-10-22T05:55:42;13.10;99.90
20728;DHT22;10525;50.154;8.198;2022-10-22T05:58:11;13.10;99.90
20728;DHT22;10525;50.154;8.198;2022-10-22T06:00:38;12.90;99.90
20728;DHT22;10525;50.154;8.198;2022-10-22T06:03:05;12.90;99.90
20728;DHT22;10525;50.154;8.198;2022-10-22T06:05:34;12.80;99.90
20728;DHT22;10525;50.154;8.198;2022-10-22T06:08:01;12.80;99.90
20728;DHT22;10525;50.154;8.198;2022-10-22T06:10:28;12.60;99.90
20728;DHT22;10525;50.154;8.198;2022-10-22T06:12:54;12.60;99.90
20728;DHT22;10525;50.154;8.198;2022-10-22T06:15:22;12.50;99.90
20728;DHT22;10525;50.154;8.198;2022-10-22T06:17:49;12.50;99.90
20728;DHT22;10525;50.154;8.198;2022-10-22T06:20:16;12.40;99.90
20728;DHT22;10525;50.154;8.198;2022-10-22T06:22:43;12.40;99.90
20728;DHT22;10525;50.154;8.198;2022-10-22T06:25:09;12.40;99.90
20728;DHT22;10525;50.154;8.198;2022-10-22T06:27:37;12.40;99.90
20728;DHT22;10525;50.154;8.198;2022-10-22T06:30:04;12.50;99.90
20728;DHT22;10525;50.154;8.198;2022-10-22T06:32:32;12.60;99.90
20728;DHT22;10525;50.154;8.198;2022-10-22T06:34:59;12.60;99.90
20728;DHT22;10525;50.154;8.198;2022-10-22T06:37:26;12.70;99.90
20728;DHT22;10525;50.154;8.198;2022-10-22T06:39:52;12.80;99.90
20728;DHT22;10525;50.154;8.198;2022-10-22T06:42:19;12.90;99.90
20728;DHT22;10525;50.154;8.198;2022-10-22T06:44:46;13.00;99.90
20728;DHT22;10525;50.154;8.198;2022-10-22T06:47:12;12.90;99.90
20728;DHT22;10525;50.154;8.198;2022-10-22T06:49:40;12.90;99.90
20728;DHT22;10525;50.154;8.198;2022-10-22T06:52:07;12.90;99.90
20728;DHT22;10525;50.154;8.198;2022-10-22T06:54:34;12.80;99.90
20728;DHT22;10525;50.154;8.198;2022-10-22T06:57:00;12.80;99.90
20728;DHT22;10525;50.154;8.198;2022-10-22T06:59:27;12.90;99.90
20728;DHT22;10525;50.154;8.198;2022-10-22T07:01:54;12.90;99.90
20728;DHT22;10525;50.154;8.198;2022-10-22T07:04:20;12.90;99.90
20728;DHT22;10525;50.154;8.198;2022-10-22T07:06:49;13.10;99.90
20728;DHT22;10525;50.154;8.198;2022-10-22T07:09:15;13.10;99.90
20728;DHT22;10525;50.154;8.198;2022-10-22T07:11:44;13.20;99.90
20728;DHT22;10525;50.154;8.198;2022-10-22T07:14:11;13.30;99.90
20728;DHT22;10525;50.154;8.198;2022-10-22T07:16:38;13.30;99.90
20728;DHT22;10525;50.154;8.198;2022-10-22T07:19:07;13.40;99.90
20728;DHT22;10525;50.154;8.198;2022-10-22T07:21:34;13.30;99.90
20728;DHT22;10525;50.154;8.198;2022-10-22T07:24:02;13.20;99.90
20728;DHT22;10525;50.154;8.198;2022-10-22T07:26:29;13.20;99.90
20728;DHT22;10525;50.154;8.198;2022-10-22T07:28:57;13.20;99.90
20728;DHT22;10525;50.154;8.198;2022-10-22T07:31:24;13.30;99.90
20728;DHT22;10525;50.154;8.198;2022-10-22T07:33:50;13.40;99.90
20728;DHT22;10525;50.154;8.198;2022-10-22T07:36:17;13.40;99.90
20728;DHT22;10525;50.154;8.198;2022-10-22T07:38:44;13.50;99.90
20728;DHT22;10525;50.154;8.198;2022-10-22T07:41:12;13.60;99.90
20728;DHT22;10525;50.154;8.198;2022-10-22T07:43:39;13.60;99.90
20728;DHT22;10525;50.154;8.198;2022-10-22T07:46:06;13.50;99.90
20728;DHT22;10525;50.154;8.198;2022-10-22T07:48:34;13.60;99.90
20728;DHT22;10525;50.154;8.198;2022-10-22T07:51:01;13.80;99.90
20728;DHT22;10525;50.154;8.198;2022-10-22T07:53:28;13.90;99.90
20728;DHT22;10525;50.154;8.198;2022-10-22T07:55:54;13.90;99.90
20728;DHT22;10525;50.154;8.198;2022-10-22T07:58:23;14.00;99.90
20728;DHT22;10525;50.154;8.198;2022-10-22T08:00:50;13.90;99.90
20728;DHT22;10525;50.154;8.198;2022-10-22T08:03:17;13.90;99.90
20728;DHT22;10525;50.154;8.198;2022-10-22T08:05:44;14.00;99.90
20728;DHT22;10525;50.154;8.198;2022-10-22T08:08:11;14.10;99.90
20728;DHT22;10525;50.154;8.198;2022-10-22T08:10:39;14.30;99.90
20728;DHT22;10525;50.154;8.198;2022-10-22T08:13:06;14.30;99.90
20728;DHT22;10525;50.154;8.198;2022-10-22T08:15:34;14.50;99.90
20728;DHT22;10525;50.154;8.198;2022-10-22T08:18:01;14.40;99.90
20728;DHT22;10525;50.154;8.198;2022-10-22T08:20:28;14.30;99.90
20728;DHT22;10525;50.154;8.198;2022-10-22T08:22:55;14.10;99.90
20728;DHT22;10525;50.154;8.198;2022-10-22T08:25:22;14.00;99.90
20728;DHT22;10525;50.154;8.198;2022-10-22T08:27:49;13.90;99.90
20728;DHT22;10525;50.154;8.198;2022-10-22T08:30:16;13.90;99.90
20728;DHT22;10525;50.154;8.198;2022-10-22T08:32:44;13.90;99.90
20728;DHT22;10525;50.154;8.198;2022-10-22T08:35:11;13.80;99.90
20728;DHT22;10525;50.154;8.198;2022-10-22T08:37:37;13.90;99.90
20728;DHT22;10525;50.154;8.198;2022-10-22T08:40:05;13.90;99.90
20728;DHT22;10525;50.154;8.198;2022-10-22T08:42:48;13.90;99.90
20728;DHT22;10525;50.154;8.198;2022-10-22T08:45:19;14.00;99.90
20728;DHT22;10525;50.154;8.198;2022-10-22T08:48:03;13.90;99.90
20728;DHT22;10525;50.154;8.198;2022-10-22T08:50:36;14.00;99.90
20728;DHT22;10525;50.154;8.198;2022-10-22T08:53:06;14.10;99.90
20728;DHT22;10525;50.154;8.198;2022-10-22T08:55:35;14.10;99.90
20728;DHT22;10525;50.154;8.198;2022-10-22T08:58:10;14.20;99.90
20728;DHT22;10525;50.154;8.198;2022-10-22T09:00:44;14.30;99.90
20728;DHT22;10525;50.154;8.198;2022-10-22T09:03:25;14.40;99.90
20728;DHT22;10525;50.154;8.198;2022-10-22T09:05:58;14.60;99.90
20728;DHT22;10525;50.154;8.198;2022-10-22T09:08:28;14.80;99.90
20728;DHT22;10525;50.154;8.198;2022-10-22T09:11:00;14.90;99.90
20728;DHT22;10525;50.154;8.198;2022-10-22T09:13:28;15.10;99.90
20728;DHT22;10525;50.154;8.198;2022-10-22T09:15:58;15.20;99.90
20728;DHT22;10525;50.154;8.198;2022-10-22T09:18:34;15.30;99.90
20728;DHT22;10525;50.154;8.198;2022-10-22T09:21:09;15.30;99.90
20728;DHT22;10525;50.154;8.198;2022-10-22T09:23:49;15.30;99.90
20728;DHT22;10525;50.154;8.198;2022-10-22T09:26:19;15.30;99.90
20728;DHT22;10525;50.154;8.198;2022-10-22T09:28:48;15.20;99.90
20728;DHT22;10525;50.154;8.198;2022-10-22T09:31:15;15.10;99.90
20728;DHT22;10525;50.154;8.198;2022-10-22T09:33:45;15.00;99.90
20728;DHT22;10525;50.154;8.198;2022-10-22T09:36:16;15.10;99.90
20728;DHT22;10525;50.154;8.198;2022-10-22T09:38:47;15.20;99.90
20728;DHT22;10525;50.154;8.198;2022-10-22T09:41:15;15.20;99.90
20728;DHT22;10525;50.154;8.198;2022-10-22T09:43:41;15.30;99.90
20728;DHT22;10525;50.154;8.198;2022-10-22T09:46:15;15.30;99.90
20728;DHT22;10525;50.154;8.198;2022-10-22T09:48:46;15.30;99.90
20728;DHT22;10525;50.154;8.198;2022-10-22T09:51:17;15.50;99.90
20728;DHT22;10525;50.154;8.198;2022-10-22T09:53:46;15.70;99.90
20728;DHT22;10525;50.154;8.198;2022-10-22T09:56:20;15.50;99.90
20728;DHT22;10525;50.154;8.198;2022-10-22T09:58:49;15.50;99.90
20728;DHT22;10525;50.154;8.198;2022-10-22T10:01:18;15.80;99.90
20728;DHT22;10525;50.154;8.198;2022-10-22T10:03:47;16.00;99.90
20728;DHT22;10525;50.154;8.198;2022-10-22T10:06:17;16.20;99.90
20728;DHT22;10525;50.154;8.198;2022-10-22T10:08:44;16.40;99.90
20728;DHT22;10525;50.154;8.198;2022-10-22T10:11:18;16.60;99.90
20728;DHT22;10525;50.154;8.198;2022-10-22T10:13:53;16.80;99.90
20728;DHT22;10525;50.154;8.198;2022-10-22T10:16:36;17.10;99.90
20728;DHT22;10525;50.154;8.198;2022-10-22T10:19:18;17.30;99.90
20728;DHT22;10525;50.154;8.198;2022-10-22T10:21:54;17.50;99.90
20728;DHT22;10525;50.154;8.198;2022-10-22T10:24:31;17.60;99.90
20728;DHT22;10525;50.154;8.198;2022-10-22T10:27:04;17.80;99.90
20728;DHT22;10525;50.154;8.198;2022-10-22T10:29:40;17.90;99.90
20728;DHT22;10525;50.154;8.198;2022-10-22T10:32:23;17.80;99.90
20728;DHT22;10525;50.154;8.198;2022-10-22T10:35:01;17.80;99.90
20728;DHT22;10525;50.154;8.198;2022-10-22T10:37:34;17.80;99.90
20728;DHT22;10525;50.154;8.198;2022-10-22T10:40:13;17.70;99.90
20728;DHT22;10525;50.154;8.198;2022-10-22T10:42:49;17.70;99.90
20728;DHT22;10525;50.154;8.198;2022-10-22T10:45:20;17.50;99.90
20728;DHT22;10525;50.154;8.198;2022-10-22T10:48:27;17.20;99.90
20728;DHT22;10525;50.154;8.198;2022-10-22T10:51:05;17.10;99.90
20728;DHT22;10525;50.154;8.198;2022-10-22T10:53:43;17.30;99.90
20728;DHT22;10525;50.154;8.198;2022-10-22T10:56:29;17.30;99.90
20728;DHT22;10525;50.154;8.198;2022-10-22T10:59:06;17.20;99.90
20728;DHT22;10525;50.154;8.198;2022-10-22T11:01:41;17.00;99.90
20728;DHT22;10525;50.154;8.198;2022-10-22T11:04:38;17.00;99.90
20728;DHT22;10525;50.154;8.198;2022-10-22T11:07:12;16.90;99.90
20728;DHT22;10525;50.154;8.198;2022-10-22T11:09:43;16.90;99.90
20728;DHT22;10525;50.154;8.198;2022-10-22T11:12:15;16.90;99.90
20728;DHT22;10525;50.154;8.198;2022-10-22T11:14:53;17.00;99.90
20728;DHT22;10525;50.154;8.198;2022-10-22T11:17:22;16.90;99.90
20728;DHT22;10525;50.154;8.198;2022-10-22T11:19:52;16.90;99.90
20728;DHT22;10525;50.154;8.198;2022-10-22T11:22:27;17.00;99.90
20728;DHT22;10525;50.154;8.198;2022-10-22T11:24:59;17.00;99.90
20728;DHT22;10525;50.154;8.198;2022-10-22T11:27:30;17.20;99.90
20728;DHT22;10525;50.154;8.198;2022-10-22T11:30:01;17.40;99.90
20728;DHT22;10525;50.154;8.198;2022-10-22T11:32:29;17.20;99.90
20728;DHT22;10525;50.154;8.198;2022-10-22T11:34:58;17.10;99.90
20728;DHT22;10525;50.154;8.198;2022-10-22T11:37:31;17.40;99.90
20728;DHT22;10525;50.154;8.198;2022-10-22T11:40:03;17.50;99.90
20728;DHT22;10525;50.154;8.198;2022-10-22T11:42:33;17.50;99.90
20728;DHT22;10525;50.154;8.198;2022-10-22T11:45:02;17.60;99.90
20728;DHT22;10525;50.154;8.198;2022-10-22T11:47:33;17.40;99.90
20728;DHT22;10525;50.154;8.198;2022-10-22T11:50:19;17.30;99.90
20728;DHT22;10525;50.154;8.198;2022-10-22T11:52:54;17.50;99.90
20728;DHT22;10525;50.154;8.198;2022-10-22T11:55:32;17.30;99.90
20728;DHT22;10525;50.154;8.198;2022-10-22T11:58:01;17.40;99.90
20728;DHT22;10525;50.154;8.198;2022-10-22T12:00:40;17.60;99.90
20728;DHT22;10525;50.154;8.198;2022-10-22T12:03:16;17.60;99.90
20728;DHT22;10525;50.154;8.198;2022-10-22T12:05:44;17.40;99.90
20728;DHT22;10525;50.154;8.198;2022-10-22T12:08:20;17.50;99.90
20728;DHT22;10525;50.154;8.198;2022-10-22T12:10:57;17.70;99.90
20728;DHT22;10525;50.154;8.198;2022-10-22T12:13:27;17.90;99.90
20728;DHT22;10525;50.154;8.198;2022-10-22T12:15:58;17.90;99.90
20728;DHT22;10525;50.154;8.198;2022-10-22T12:18:27;18.10;99.90
20728;DHT22;10525;50.154;8.198;2022-10-22T12:20:55;18.10;99.90
20728;DHT22;10525;50.154;8.198;2022-10-22T12:23:28;18.30;99.90
20728;DHT22;10525;50.154;8.198;2022-10-22T12:25:56;18.50;99.90
20728;DHT22;10525;50.154;8.198;2022-10-22T12:28:22;18.50;99.90
20728;DHT22;10525;50.154;8.198;2022-10-22T12:30:49;18.20;99.90
20728;DHT22;10525;50.154;8.198;2022-10-22T12:33:18;18.10;99.90
20728;DHT22;10525;50.154;8.198;2022-10-22T12:35:47;17.90;99.90
20728;DHT22;10525;50.154;8.198;2022-10-22T12:38:18;17.90;99.90
20728;DHT22;10525;50.154;8.198;2022-10-22T12:40:47;18.00;99.90
20728;DHT22;10525;50.154;8.198;2022-10-22T12:43:16;18.20;99.90
20728;DHT22;10525;50.154;8.198;2022-10-22T12:45:45;18.50;99.90
20728;DHT22;10525;50.154;8.198;2022-10-22T12:48:15;18.50;99.90
20728;DHT22;10525;50.154;8.198;2022-10-22T12:50:44;18.80;99.90
20728;DHT22;10525;50.154;8.198;2022-10-22T12:53:14;19.00;99.90
20728;DHT22;10525;50.154;8.198;2022-10-22T12:55:42;19.10;99.90
20728;DHT22;10525;50.154;8.198;2022-10-22T12:58:16;19.10;99.90
20728;DHT22;10525;50.154;8.198;2022-10-22T13:00:44;19.20;99.90
20728;DHT22;10525;50.154;8.198;2022-10-22T13:03:25;19.30;99.90
20728;DHT22;10525;50.154;8.198;2022-10-22T13:05:52;19.00;99.90
20728;DHT22;10525;50.154;8.198;2022-10-22T13:08:21;18.80;99.90
20728;DHT22;10525;50.154;8.198;2022-10-22T13:10:50;18.70;99.90
20728;DHT22;10525;50.154;8.198;2022-10-22T13:13:32;18.40;99.90
20728;DHT22;10525;50.154;8.198;2022-10-22T13:16:17;18.20;99.90
20728;DHT22;10525;50.154;8.198;2022-10-22T13:18:45;18.20;99.90
20728;DHT22;10525;50.154;8.198;2022-10-22T13:21:24;18.20;99.90
20728;DHT22;10525;50.154;8.198;2022-10-22T13:23:53;18.30;99.90
20728;DHT22;10525;50.154;8.198;2022-10-22T13:26:20;18.30;99.90
20728;DHT22;10525;50.154;8.198;2022-10-22T13:28:53;18.20;99.90
20728;DHT22;10525;50.154;8.198;2022-10-22T13:31:24;18.50;99.90
20728;DHT22;10525;50.154;8.198;2022-10-22T13:33:53;18.30;99.90
20728;DHT22;10525;50.154;8.198;2022-10-22T13:36:21;18.40;99.90
20728;DHT22;10525;50.154;8.198;2022-10-22T13:38:48;18.40;99.90
20728;DHT22;10525;50.154;8.198;2022-10-22T13:41:19;18.20;99.90
20728;DHT22;10525;50.154;8.198;2022-10-22T13:43:47;18.20;99.90
20728;DHT22;10525;50.154;8.198;2022-10-22T13:46:15;18.00;99.90
20728;DHT22;10525;50.154;8.198;2022-10-22T13:48:42;17.90;99.90
20728;DHT22;10525;50.154;8.198;2022-10-22T13:51:13;17.90;99.90
20728;DHT22;10525;50.154;8.198;2022-10-22T13:53:41;17.90;99.90
20728;DHT22;10525;50.154;8.198;2022-10-22T13:56:12;17.90;99.90
20728;DHT22;10525;50.154;8.198;2022-10-22T13:58:40;17.90;99.90
20728;DHT22;10525;50.154;8.198;2022-10-22T14:01:17;18.10;99.90
20728;DHT22;10525;50.154;8.198;2022-10-22T14:03:45;18.20;99.90
20728;DHT22;10525;50.154;8.198;2022-10-22T14:06:14;18.20;99.90
20728;DHT22;10525;50.154;8.198;2022-10-22T14:08:41;18.40;99.90
20728;DHT22;10525;50.154;8.198;2022-10-22T14:11:10;18.30;99.90
20728;DHT22;10525;50.154;8.198;2022-10-22T14:13:37;18.10;99.90
20728;DHT22;10525;50.154;8.198;2022-10-22T14:16:04;17.90;99.90
20728;DHT22;10525;50.154;8.198;2022-10-22T14:18:34;17.90;99.90
20728;DHT22;10525;50.154;8.198;2022-10-22T14:21:02;17.90;99.90
20728;DHT22;10525;50.154;8.198;2022-10-22T14:23:32;17.90;99.90
20728;DHT22;10525;50.154;8.198;2022-10-22T14:26:02;17.90;99.90
20728;DHT22;10525;50.154;8.198;2022-10-22T14:28:28;17.90;99.90
20728;DHT22;10525;50.154;8.198;2022-10-22T14:30:55;17.90;99.90
20728;DHT22;10525;50.154;8.198;2022-10-22T14:33:24;17.80;99.90
20728;DHT22;10525;50.154;8.198;2022-10-22T14:35:52;17.80;99.90
20728;DHT22;10525;50.154;8.198;2022-10-22T14:38:19;17.90;99.90
20728;DHT22;10525;50.154;8.198;2022-10-22T14:40:46;18.00;99.90
20728;DHT22;10525;50.154;8.198;2022-10-22T14:43:17;18.00;99.90
20728;DHT22;10525;50.154;8.198;2022-10-22T14:45:45;18.00;99.90
20728;DHT22;10525;50.154;8.198;2022-10-22T14:48:12;18.10;99.90
20728;DHT22;10525;50.154;8.198;2022-10-22T14:50:40;18.10;99.90
20728;DHT22;10525;50.154;8.198;2022-10-22T14:53:08;18.20;99.90
20728;DHT22;10525;50.154;8.198;2022-10-22T14:55:35;18.10;99.90
20728;DHT22;10525;50.154;8.198;2022-10-22T14:58:02;18.00;99.90
20728;DHT22;10525;50.154;8.198;2022-10-22T15:00:29;17.90;99.90
20728;DHT22;10525;50.154;8.198;2022-10-22T15:02:55;17.80;99.90
20728;DHT22;10525;50.154;8.198;2022-10-22T15:05:24;17.80;99.90
20728;DHT22;10525;50.154;8.198;2022-10-22T15:07:51;17.70;99.90
20728;DHT22;10525;50.154;8.198;2022-10-22T15:10:19;17.60;99.90
20728;DHT22;10525;50.154;8.198;2022-10-22T15:12:46;17.60;99.90
20728;DHT22;10525;50.154;8.198;2022-10-22T15:15:12;17.50;99.90
20728;DHT22;10525;50.154;8.198;2022-10-22T15:17:39;17.40;99.90
20728;DHT22;10525;50.154;8.198;2022-10-22T15:20:06;17.30;99.90
20728;DHT22;10525;50.154;8.198;2022-10-22T15:22:33;17.20;99.90
20728;DHT22;10525;50.154;8.198;2022-10-22T15:25:01;17.20;99.90
20728;DHT22;10525;50.154;8.198;2022-10-22T15:27:29;17.10;99.90
20728;DHT22;10525;50.154;8.198;2022-10-22T15:29:56;17.10;99.90
20728;DHT22;10525;50.154;8.198;2022-10-22T15:32:23;17.10;99.90
20728;DHT22;10525;50.154;8.198;2022-10-22T15:34:51;17.00;99.90
20728;DHT22;10525;50.154;8.198;2022-10-22T15:37:19;16.90;99.90
20728;DHT22;10525;50.154;8.198;2022-10-22T15:39:46;16.90;99.90
20728;DHT22;10525;50.154;8.198;2022-10-22T15:42:13;16.90;99.90
20728;DHT22;10525;50.154;8.198;2022-10-22T15:44:41;16.80;99.90
20728;DHT22;10525;50.154;8.198;2022-10-22T15:47:08;16.70;99.90
20728;DHT22;10525;50.154;8.198;2022-10-22T15:49:37;16.50;99.90
20728;DHT22;10525;50.154;8.198;2022-10-22T15:52:04;16.40;99.90